createdAt,value
2022-09-02T00:00:08.614Z,9.72
2022-09-02T00:02:37.278Z,9.81
2022-09-02T00:05:07.002Z,9.66
2022-09-02T00:07:35.384Z,9.72
2022-09-02T00:10:03.823Z,9.78
2022-09-02T00:12:32.300Z,9.66
2022-09-02T00:15:02.215Z,9.67
2022-09-02T00:17:30.611Z,9.72
2022-09-02T00:19:59.034Z,9.63
2022-09-02T00:22:27.620Z,9.61
2022-09-02T00:24:56.085Z,9.59
2022-09-02T00:27:24.534Z,9.52
2022-09-02T00:29:53.575Z,9.59
2022-09-02T00:32:23.437Z,9.70
2022-09-02T00:34:51.894Z,9.71
2022-09-02T00:37:20.285Z,9.65
2022-09-02T00:39:48.694Z,9.60
2022-09-02T00:42:17.063Z,9.54
2022-09-02T00:44:45.515Z,9.53
2022-09-02T00:47:15.595Z,9.47
2022-09-02T00:49:48.245Z,9.34
2022-09-02T00:52:19.875Z,9.22
2022-09-02T00:54:51.204Z,9.28
2022-09-02T00:57:23.525Z,9.30
2022-09-02T00:59:56.514Z,9.21
2022-09-02T01:02:29.031Z,9.21
2022-09-02T01:04:59.514Z,9.13
2022-09-02T01:07:30.594Z,9.14
2022-09-02T01:10:23.867Z,9.12
2022-09-02T01:12:56.582Z,8.91
2022-09-02T01:15:24.973Z,8.96
2022-09-02T01:17:53.781Z,9.02
2022-09-02T01:20:25.944Z,8.98
2022-09-02T01:22:57.506Z,8.98
2022-09-02T01:25:29.551Z,9.02
2022-09-02T01:28:01.114Z,9.04
2022-09-02T01:30:29.783Z,9.11
2022-09-02T01:32:57.985Z,9.17
2022-09-02T01:35:26.354Z,9.12
2022-09-02T01:37:58.231Z,9.10
2022-09-02T01:40:28.229Z,9.13
2022-09-02T01:42:59.997Z,9.11
2022-09-02T01:45:28.473Z,9.09
2022-09-02T01:47:56.834Z,8.93
2022-09-02T01:50:25.216Z,8.95
2022-09-02T01:52:53.393Z,8.95
2022-09-02T01:55:23.284Z,9.02
2022-09-02T01:57:51.842Z,8.99
2022-09-02T02:00:21.312Z,8.90
2022-09-02T02:02:49.481Z,8.87
2022-09-02T02:05:17.854Z,8.93
2022-09-02T02:07:46.403Z,8.79
2022-09-02T02:10:16.142Z,8.94
2022-09-02T02:12:45.704Z,8.91
2022-09-02T02:15:15.898Z,8.86
2022-09-02T02:17:44.244Z,8.88
2022-09-02T02:20:14.013Z,8.70
2022-09-02T02:22:42.445Z,8.73
2022-09-02T02:25:11.424Z,8.74
2022-09-02T02:27:39.686Z,8.64
2022-09-02T02:30:16.654Z,8.73
2022-09-02T02:32:47.219Z,8.73
2022-09-02T02:35:16.574Z,8.65
2022-09-02T02:37:44.841Z,8.61
2022-09-02T02:40:13.592Z,8.54
2022-09-02T02:42:41.904Z,8.65
2022-09-02T02:45:15.120Z,8.70
2022-09-02T02:47:46.290Z,8.74
2022-09-02T02:50:16.303Z,8.57
2022-09-02T02:52:45.155Z,8.53
2022-09-02T02:55:14.513Z,8.57
2022-09-02T02:57:43.122Z,8.58
2022-09-02T03:00:16.343Z,8.57
2022-09-02T03:02:44.533Z,8.63
2022-09-02T03:05:14.793Z,8.57
2022-09-02T03:07:43.193Z,8.72
2022-09-02T03:10:13.227Z,8.65
2022-09-02T03:12:42.104Z,8.59
2022-09-02T03:15:12.714Z,8.59
2022-09-02T03:17:40.803Z,8.63
2022-09-02T03:20:09.464Z,8.62
2022-09-02T03:22:39.073Z,8.69
2022-09-02T03:25:08.993Z,8.66
2022-09-02T03:27:38.922Z,8.62
2022-09-02T03:30:09.514Z,8.57
2022-09-02T03:32:39.403Z,8.55
2022-09-02T03:35:10.163Z,8.46
2022-09-02T03:37:38.764Z,8.48
2022-09-02T03:40:09.107Z,8.38
2022-09-02T03:42:37.383Z,8.33
2022-09-02T03:45:09.084Z,8.33
2022-09-02T03:47:40.707Z,8.39
2022-09-02T03:50:09.363Z,8.37
2022-09-02T03:52:37.985Z,8.31
2022-09-02T03:55:06.934Z,8.28
2022-09-02T03:57:37.121Z,8.30
2022-09-02T04:00:07.282Z,8.28
2022-09-02T04:02:35.867Z,8.21
2022-09-02T04:05:06.264Z,8.22
2022-09-02T04:07:42.325Z,8.29
2022-09-02T04:10:14.368Z,8.21
2022-09-02T04:12:42.884Z,8.29
2022-09-02T04:15:13.674Z,8.36
2022-09-02T04:17:42.875Z,8.34
2022-09-02T04:20:14.515Z,8.39
2022-09-02T04:22:42.640Z,8.31
2022-09-02T04:25:11.434Z,8.21
2022-09-02T04:27:40.254Z,8.24
2022-09-02T04:30:10.405Z,8.31
2022-09-02T04:32:40.943Z,8.14
2022-09-02T04:35:09.686Z,8.17
2022-09-02T04:37:39.784Z,8.16
2022-09-02T04:40:09.168Z,8.19
2022-09-02T04:42:37.914Z,8.22
2022-09-02T04:45:06.915Z,8.25
2022-09-02T04:47:35.242Z,8.30
2022-09-02T04:50:03.977Z,8.33
2022-09-02T04:52:32.417Z,8.21
2022-09-02T04:55:02.015Z,8.19
2022-09-02T04:57:30.186Z,8.23
2022-09-02T04:59:58.643Z,8.30
2022-09-02T05:02:26.841Z,8.37
2022-09-02T05:04:55.124Z,8.39
2022-09-02T05:07:23.234Z,8.46
2022-09-02T05:09:51.625Z,8.52
2022-09-02T05:12:22.363Z,8.62
2022-09-02T05:14:50.484Z,8.75
2022-09-02T05:17:19.213Z,8.81
2022-09-02T05:19:47.427Z,8.91
2022-09-02T05:22:16.115Z,9.00
2022-09-02T05:24:44.236Z,9.02
2022-09-02T05:27:12.875Z,9.25
2022-09-02T05:29:45.316Z,9.41
2022-09-02T05:32:13.936Z,9.61
2022-09-02T05:34:42.217Z,9.76
2022-09-02T05:37:10.365Z,9.95
2022-09-02T05:39:38.574Z,10.17
2022-09-02T05:42:06.908Z,10.36
2022-09-02T05:44:35.205Z,10.46
2022-09-02T05:47:04.885Z,10.61
2022-09-02T05:49:33.334Z,10.70
2022-09-02T05:52:02.019Z,10.89
2022-09-02T05:54:32.574Z,11.14
2022-09-02T05:57:03.462Z,11.16
2022-09-02T05:59:40.197Z,11.05
2022-09-02T06:02:10.275Z,11.34
2022-09-02T06:04:39.981Z,11.31
2022-09-02T06:07:08.592Z,11.43
2022-09-02T06:09:41.189Z,11.55
2022-09-02T06:12:09.803Z,11.53
2022-09-02T06:14:38.351Z,11.77
2022-09-02T06:17:07.172Z,11.94
2022-09-02T06:19:37.135Z,12.14
2022-09-02T06:22:06.551Z,12.26
2022-09-02T06:24:34.820Z,12.40
2022-09-02T06:27:03.132Z,12.39
2022-09-02T06:29:31.793Z,12.38
2022-09-02T06:32:00.012Z,12.40
2022-09-02T06:34:28.419Z,12.55
2022-09-02T06:36:59.283Z,12.67
2022-09-02T06:39:27.335Z,13.03
2022-09-02T06:41:55.992Z,13.25
2022-09-02T06:44:24.051Z,13.54
2022-09-02T06:46:56.079Z,13.64
2022-09-02T06:49:25.059Z,13.70
2022-09-02T06:51:55.351Z,13.86
2022-09-02T06:54:26.121Z,13.95
2022-09-02T06:56:54.571Z,14.21
2022-09-02T06:59:23.451Z,14.24
2022-09-02T07:01:51.963Z,14.29
2022-09-02T07:04:37.901Z,14.41
2022-09-02T07:07:08.501Z,14.49
2022-09-02T07:09:37.901Z,14.54
2022-09-02T07:12:06.344Z,14.47
2022-09-02T07:14:38.415Z,14.77
2022-09-02T07:17:07.044Z,14.85
2022-09-02T07:19:35.208Z,14.84
2022-09-02T07:22:06.591Z,14.90
2022-09-02T07:24:35.071Z,14.95
2022-09-02T07:27:06.063Z,15.03
2022-09-02T07:29:35.243Z,14.84
2022-09-02T07:32:03.659Z,14.71
2022-09-02T07:34:31.781Z,15.17
2022-09-02T07:37:05.021Z,15.24
2022-09-02T07:39:35.991Z,15.17
2022-09-02T07:42:07.553Z,15.34
2022-09-02T07:44:36.044Z,15.42
2022-09-02T07:47:04.443Z,15.51
2022-09-02T07:50:15.823Z,15.61
2022-09-02T07:52:20.555Z,15.71
2022-09-02T07:54:48.663Z,15.62
2022-09-02T07:57:18.073Z,15.52
2022-09-02T07:59:46.361Z,15.39
2022-09-02T08:02:14.606Z,15.71
2022-09-02T08:04:43.891Z,16.15
2022-09-02T08:07:12.423Z,16.08
2022-09-02T08:09:40.643Z,16.08
2022-09-02T08:12:09.013Z,16.30
2022-09-02T08:14:38.413Z,16.33
2022-09-02T08:17:06.503Z,16.59
2022-09-02T08:19:34.536Z,16.83
2022-09-02T08:22:05.258Z,16.78
2022-09-02T08:24:33.412Z,16.74
2022-09-02T08:27:01.623Z,16.91
2022-09-02T08:29:29.734Z,16.83
2022-09-02T08:31:59.396Z,16.98
2022-09-02T08:34:27.563Z,16.97
2022-09-02T08:36:56.768Z,17.07
2022-09-02T08:39:26.115Z,17.20
2022-09-02T08:44:30.613Z,16.94
2022-09-02T08:47:04.116Z,17.04
2022-09-02T08:49:35.976Z,17.27
2022-09-02T08:52:05.955Z,17.61
2022-09-02T08:54:41.208Z,17.84
2022-09-02T08:57:09.998Z,17.79
2022-09-02T08:59:41.904Z,17.83
2022-09-02T09:02:27.207Z,17.84
2022-09-02T09:05:09.064Z,18.06
2022-09-02T09:07:39.338Z,18.19
2022-09-02T09:10:13.381Z,18.32
2022-09-02T09:13:02.416Z,18.28
2022-09-02T09:15:35.435Z,18.34
2022-09-02T09:18:08.817Z,18.29
2022-09-02T09:20:40.335Z,18.49
2022-09-02T09:23:22.002Z,18.65
2022-09-02T09:25:51.833Z,18.83
2022-09-02T09:28:20.075Z,18.56
2022-09-02T09:30:48.290Z,18.64
2022-09-02T09:33:20.031Z,18.47
2022-09-02T09:35:50.904Z,18.30
2022-09-02T09:38:30.247Z,18.25
2022-09-02T09:41:13.995Z,18.30
2022-09-02T09:43:42.205Z,18.50
2022-09-02T09:46:28.296Z,18.73
2022-09-02T09:48:57.915Z,18.98
2022-09-02T09:51:26.043Z,18.90
2022-09-02T09:53:54.325Z,19.13
2022-09-02T09:56:37.248Z,19.23
2022-09-02T09:59:09.072Z,19.26
2022-09-02T10:01:37.505Z,19.24
2022-09-02T10:04:32.206Z,19.03
2022-09-02T10:06:57.661Z,18.98
2022-09-02T10:09:34.004Z,19.12
2022-09-02T10:12:04.131Z,19.29
2022-09-02T10:14:36.132Z,19.36
2022-09-02T10:17:25.183Z,19.84
2022-09-02T10:19:58.868Z,19.38
2022-09-02T10:22:59.580Z,19.61
2022-09-02T10:25:33.425Z,20.13
2022-09-02T10:28:07.368Z,20.24
2022-09-02T10:30:42.735Z,19.88
2022-09-02T10:33:26.301Z,20.01
2022-09-02T10:36:02.781Z,20.19
2022-09-02T10:38:40.507Z,20.16
2022-09-02T10:41:18.798Z,20.09
2022-09-02T10:44:04.072Z,20.36
2022-09-02T10:46:40.560Z,20.46
2022-09-02T10:49:13.965Z,20.42
2022-09-02T10:51:49.975Z,20.39
2022-09-02T10:54:27.678Z,20.10
2022-09-02T10:56:59.800Z,19.03
2022-09-02T10:59:33.182Z,19.21
2022-09-02T11:02:07.644Z,19.61
2022-09-02T11:04:39.695Z,20.18
2022-09-02T11:07:11.333Z,20.78
2022-09-02T11:09:42.181Z,20.79
2022-09-02T11:12:16.454Z,20.60
2022-09-02T11:14:53.077Z,20.90
2022-09-02T11:17:25.093Z,21.10
2022-09-02T11:19:58.126Z,21.25
2022-09-02T11:22:31.844Z,21.54
2022-09-02T11:25:05.144Z,21.36
2022-09-02T11:27:42.444Z,21.58
2022-09-02T11:30:15.197Z,21.71
2022-09-02T11:32:48.129Z,21.61
2022-09-02T11:35:20.144Z,21.90
2022-09-02T11:37:53.549Z,21.24
2022-09-02T11:40:35.212Z,21.53
2022-09-02T11:43:10.084Z,21.37
2022-09-02T11:46:13.747Z,21.32
2022-09-02T11:49:06.147Z,21.14
2022-09-02T11:52:07.900Z,20.63
2022-09-02T11:54:40.736Z,20.65
2022-09-02T11:57:12.997Z,20.38
2022-09-02T12:00:04.185Z,20.71
2022-09-02T12:02:36.080Z,21.00
2022-09-02T12:05:42.390Z,21.00
2022-09-02T12:08:13.265Z,20.57
2022-09-02T12:11:04.980Z,21.40
2022-09-02T12:13:35.444Z,21.89
2022-09-02T12:16:36.258Z,21.94
2022-09-02T12:19:25.331Z,21.62
2022-09-02T12:22:27.442Z,21.00
2022-09-02T12:24:58.325Z,20.96
2022-09-02T12:27:30.163Z,21.09
2022-09-02T12:30:00.086Z,21.26
2022-09-02T12:33:01.474Z,21.46
2022-09-02T12:35:52.110Z,21.20
2022-09-02T12:38:31.177Z,21.68
2022-09-02T12:41:09.130Z,21.90
2022-09-02T12:43:50.444Z,21.81
2022-09-02T12:46:23.141Z,21.92
2022-09-02T12:49:01.031Z,23.44
2022-09-02T12:52:02.734Z,25.83
2022-09-02T12:54:37.544Z,27.82
2022-09-02T12:57:06.276Z,28.76
2022-09-02T12:59:37.533Z,30.26
2022-09-02T13:02:17.178Z,30.86
2022-09-02T13:04:51.881Z,32.07
2022-09-02T13:07:49.174Z,32.36
2022-09-02T13:10:49.635Z,33.52
2022-09-02T13:13:50.103Z,34.56
2022-09-02T13:16:24.749Z,35.15
2022-09-02T13:19:25.072Z,34.80
2022-09-02T13:22:24.484Z,35.39
2022-09-02T13:25:13.513Z,33.41
2022-09-02T13:28:13.884Z,33.11
2022-09-02T13:30:59.301Z,34.18
2022-09-02T13:33:29.054Z,33.08
2022-09-02T13:35:59.624Z,33.66
2022-09-02T13:38:29.668Z,33.82
2022-09-02T13:40:57.874Z,33.72
2022-09-02T13:43:28.339Z,31.61
2022-09-02T13:46:00.319Z,30.07
2022-09-02T13:48:32.005Z,32.77
2022-09-02T13:51:03.012Z,32.95
2022-09-02T13:53:53.626Z,34.57
2022-09-02T13:56:27.392Z,35.56
2022-09-02T13:58:57.261Z,34.97
2022-09-02T14:01:29.159Z,33.93
2022-09-02T14:03:59.886Z,32.27
2022-09-02T14:06:30.907Z,34.03
2022-09-02T14:09:00.955Z,33.49
2022-09-02T14:11:30.045Z,33.60
2022-09-02T14:13:58.522Z,35.30
2022-09-02T14:16:28.364Z,36.16
2022-09-02T14:19:09.393Z,35.38
2022-09-02T14:21:38.576Z,33.82
2022-09-02T14:24:07.133Z,34.63
2022-09-02T14:26:37.641Z,34.88
2022-09-02T14:29:07.883Z,33.78
2022-09-02T14:31:38.035Z,33.92
2022-09-02T14:34:34.687Z,32.62
2022-09-02T14:37:02.942Z,33.43
2022-09-02T14:39:31.142Z,33.34
2022-09-02T14:41:59.220Z,32.59
2022-09-02T14:44:32.848Z,32.11
2022-09-02T14:47:02.368Z,33.74
2022-09-02T14:49:34.866Z,34.61
2022-09-02T14:52:05.051Z,34.74
2022-09-02T14:54:38.423Z,31.48
2022-09-02T14:57:07.412Z,31.19
2022-09-02T14:59:35.611Z,30.90
2022-09-02T15:02:03.630Z,31.21
2022-09-02T15:04:35.782Z,30.20
2022-09-02T15:07:03.742Z,30.75
2022-09-02T15:09:31.770Z,30.00
2022-09-02T15:12:02.847Z,27.70
2022-09-02T15:14:31.213Z,26.38
2022-09-02T15:16:59.712Z,25.15
2022-09-02T15:19:27.752Z,24.46
2022-09-02T15:21:57.153Z,23.61
2022-09-02T15:24:25.330Z,23.11
2022-09-02T15:26:53.553Z,22.86
2022-09-02T15:29:24.067Z,22.12
2022-09-02T15:31:56.322Z,21.64
2022-09-02T15:34:27.912Z,21.53
2022-09-02T15:36:57.552Z,21.39
2022-09-02T15:39:26.169Z,21.21
2022-09-02T15:41:55.604Z,20.50
2022-09-02T15:44:26.004Z,20.52
2022-09-02T15:46:54.763Z,20.67
2022-09-02T15:49:24.712Z,20.65
2022-09-02T15:51:55.346Z,20.55
2022-09-02T15:54:25.525Z,20.15
2022-09-02T15:56:56.755Z,19.89
2022-09-02T15:59:24.863Z,19.88
2022-09-02T16:01:55.453Z,19.80
2022-09-02T16:04:24.069Z,19.67
2022-09-02T16:06:53.772Z,19.75
2022-09-02T16:09:21.824Z,19.61
2022-09-02T16:11:52.751Z,19.65
2022-09-02T16:14:22.260Z,19.63
2022-09-02T16:16:50.774Z,19.51
2022-09-02T16:19:20.698Z,19.37
2022-09-02T16:21:49.161Z,19.33
2022-09-02T16:24:18.337Z,19.17
2022-09-02T16:26:46.321Z,19.15
2022-09-02T16:29:16.741Z,19.19
2022-09-02T16:32:01.862Z,19.07
2022-09-02T16:34:34.231Z,18.88
2022-09-02T16:37:02.431Z,18.90
2022-09-02T16:39:30.793Z,18.90
2022-09-02T16:42:04.343Z,18.75
2022-09-02T16:44:35.900Z,18.68
2022-09-02T16:47:03.956Z,18.66
2022-09-02T16:49:32.156Z,18.64
2022-09-02T16:52:00.205Z,18.54
2022-09-02T16:54:31.402Z,18.47
2022-09-02T16:57:01.028Z,18.51
2022-09-02T16:59:33.250Z,18.42
2022-09-02T17:02:01.821Z,18.34
2022-09-02T17:04:29.880Z,18.31
2022-09-02T17:06:58.111Z,18.17
2022-09-02T17:09:26.130Z,18.14
2022-09-02T17:11:54.340Z,18.08
2022-09-02T17:14:22.537Z,18.05
2022-09-02T17:16:53.123Z,18.06
2022-09-02T17:19:22.647Z,17.93
2022-09-02T17:21:52.000Z,17.89
2022-09-02T17:24:21.780Z,17.71
2022-09-02T17:26:51.812Z,17.69
2022-09-02T17:32:10.720Z,17.48
2022-09-02T17:34:38.764Z,17.41
2022-09-02T17:37:06.883Z,17.28
2022-09-02T17:39:35.080Z,17.17
2022-09-02T17:42:02.320Z,16.98
2022-09-02T17:44:35.510Z,16.90
2022-09-02T17:47:05.231Z,16.76
2022-09-02T17:49:36.711Z,16.69
2022-09-02T17:52:05.542Z,16.58
2022-09-02T17:54:33.818Z,16.50
2022-09-02T17:57:10.380Z,16.42
2022-09-02T17:59:52.121Z,16.41
2022-09-02T18:02:46.640Z,16.35
2022-09-02T18:05:22.133Z,16.34
2022-09-02T18:08:01.362Z,16.28
2022-09-02T18:10:34.656Z,16.24
2022-09-02T18:13:05.221Z,16.08
2022-09-02T18:15:38.153Z,15.88
2022-09-02T18:18:07.285Z,15.75
2022-09-02T18:20:43.285Z,15.69
2022-09-02T18:23:29.480Z,15.63
2022-09-02T18:26:04.673Z,15.62
2022-09-02T18:28:44.837Z,15.66
2022-09-02T18:31:24.026Z,15.60
2022-09-02T18:34:12.024Z,15.61
2022-09-02T18:36:46.237Z,15.58
2022-09-02T18:39:34.460Z,15.59
2022-09-02T18:42:16.566Z,15.67
2022-09-02T18:44:48.286Z,15.69
2022-09-02T18:47:20.655Z,15.65
2022-09-02T18:49:50.116Z,15.67
2022-09-02T18:52:22.386Z,15.61
2022-09-02T18:54:54.453Z,15.58
2022-09-02T18:57:22.710Z,15.55
2022-09-02T18:59:53.755Z,15.58
2022-09-02T19:02:27.265Z,15.51
2022-09-02T19:04:57.646Z,15.54
2022-09-02T19:07:44.797Z,15.51
2022-09-02T19:10:14.294Z,15.56
2022-09-02T19:12:44.367Z,15.48
2022-09-02T19:15:14.458Z,15.38
2022-09-02T19:17:45.523Z,15.32
2022-09-02T19:20:14.175Z,15.26
2022-09-02T19:22:45.754Z,15.23
2022-09-02T19:25:15.881Z,15.24
2022-09-02T19:27:45.375Z,15.21
2022-09-02T19:30:15.886Z,15.15
2022-09-02T19:32:45.565Z,15.04
2022-09-02T19:35:17.613Z,14.97
2022-09-02T19:37:51.262Z,14.92
2022-09-02T19:40:21.873Z,14.81
2022-09-02T19:42:52.115Z,14.74
2022-09-02T19:45:21.897Z,14.70
2022-09-02T19:48:06.611Z,14.60
2022-09-02T19:50:36.935Z,14.52
2022-09-02T19:53:07.327Z,14.53
2022-09-02T19:55:36.155Z,14.36
2022-09-02T19:58:04.613Z,14.37
2022-09-02T20:00:33.941Z,14.36
2022-09-02T20:03:03.341Z,14.31
2022-09-02T20:05:31.546Z,14.22
2022-09-02T20:07:59.584Z,14.14
2022-09-02T20:10:29.936Z,14.17
2022-09-02T20:12:59.204Z,14.19
2022-09-02T20:15:27.558Z,14.10
2022-09-02T20:18:00.805Z,14.12
2022-09-02T20:20:29.713Z,14.06
2022-09-02T20:22:57.964Z,14.06
2022-09-02T20:25:40.605Z,14.00
2022-09-02T20:28:16.383Z,13.88
2022-09-02T20:30:46.914Z,13.95
2022-09-02T20:33:17.779Z,13.85
2022-09-02T20:36:03.753Z,13.77
2022-09-02T20:38:42.403Z,13.69
2022-09-02T20:41:21.596Z,13.58
2022-09-02T20:44:07.391Z,13.52
2022-09-02T20:46:48.380Z,13.46
2022-09-02T20:49:23.713Z,13.41
2022-09-02T20:51:56.355Z,13.47
2022-09-02T20:54:33.295Z,13.41
2022-09-02T20:57:14.316Z,13.41
2022-09-02T20:59:52.628Z,13.29
2022-09-02T21:02:22.201Z,13.36
2022-09-02T21:04:53.545Z,13.32
2022-09-02T21:07:24.858Z,13.33
2022-09-02T21:09:59.244Z,13.28
2022-09-02T21:12:37.187Z,13.32
2022-09-02T21:15:08.705Z,13.29
2022-09-02T21:17:40.870Z,13.27
2022-09-02T21:20:15.705Z,13.28
2022-09-02T21:22:46.513Z,13.24
2022-09-02T21:25:17.480Z,13.27
2022-09-02T21:27:52.236Z,13.26
2022-09-02T21:30:22.498Z,13.22
2022-09-02T21:32:52.868Z,13.19
2022-09-02T21:35:23.125Z,13.23
2022-09-02T21:37:54.824Z,13.15
2022-09-02T21:40:26.785Z,13.19
2022-09-02T21:43:06.595Z,13.12
2022-09-02T21:45:40.142Z,13.10
2022-09-02T21:48:21.588Z,13.05
2022-09-02T21:50:58.176Z,12.96
2022-09-02T21:53:40.256Z,12.99
2022-09-02T21:56:22.954Z,12.93
2022-09-02T21:59:06.653Z,12.81
2022-09-02T22:01:44.484Z,12.66
2022-09-02T22:04:22.415Z,12.69
2022-09-02T22:06:58.194Z,12.77
2022-09-02T22:09:30.133Z,12.77
2022-09-02T22:12:02.288Z,12.44
2022-09-02T22:14:34.543Z,12.26
2022-09-02T22:17:05.634Z,12.14
2022-09-02T22:19:39.168Z,11.96
2022-09-02T22:22:10.205Z,11.92
2022-09-02T22:24:40.662Z,11.77
2022-09-02T22:27:13.175Z,11.77
2022-09-02T22:29:48.138Z,11.66
2022-09-02T22:32:19.005Z,11.63
2022-09-02T22:34:50.926Z,11.57
2022-09-02T22:37:23.725Z,11.43
2022-09-02T22:39:53.400Z,11.35
2022-09-02T22:42:27.155Z,11.32
2022-09-02T22:45:20.327Z,11.37
2022-09-02T22:48:08.853Z,11.37
2022-09-02T22:50:54.085Z,11.25
2022-09-02T22:53:22.289Z,11.21
2022-09-02T22:55:59.052Z,11.18
2022-09-02T22:58:39.805Z,11.10
2022-09-02T23:01:19.551Z,11.10
2022-09-02T23:03:58.083Z,11.04
2022-09-02T23:06:28.646Z,10.93
2022-09-02T23:08:57.385Z,10.86
2022-09-02T23:11:31.694Z,10.83
2022-09-02T23:14:10.215Z,10.77
2022-09-02T23:16:48.925Z,10.75
2022-09-02T23:19:20.835Z,10.66
2022-09-02T23:21:55.697Z,10.61
2022-09-02T23:24:28.555Z,10.58
2022-09-02T23:27:03.714Z,10.53
2022-09-02T23:29:35.796Z,10.55
2022-09-02T23:32:22.765Z,10.48
2022-09-02T23:35:02.465Z,10.50
2022-09-02T23:37:38.065Z,10.47
2022-09-02T23:40:11.635Z,10.45
2022-09-02T23:42:40.054Z,10.42
2022-09-02T23:45:19.917Z,10.44
2022-09-02T23:47:58.405Z,10.39
2022-09-02T23:50:32.986Z,10.37
2022-09-02T23:53:08.807Z,10.32
2022-09-02T23:55:44.843Z,10.32
2022-09-02T23:58:24.191Z,10.28
